Chagrin Falls, OH (44022)

1:11 AM EST on February 12, 2016 (GMT -0500)
Moreland Hills | | Change Station
CLOSE
Current Station
Personal Weather Station
Location: Moreland Hills, OH
Elevation: 1096 ft
Nearby Weather Stations

Elev 1096 ft 41.44 °N, 81.44 °W | Updated 8 seconds ago

Clear
Clear
9.8 °F
Feels Like 10 °F
N
0.0
Wind Variable Wind from SSW
Gusts 2.0 mph

Today
High -- | Low -- °F
--% Chance of Precip.
Yesterday
High -- | Low -- °F
Precip. -- in
Pressure 30.25 in
Visibility 15.0 miles
Clouds Few 3000 ft
Mostly Cloudy 6000 ft
Mostly Cloudy 10000 ft
Windchill 10 °F
Dew Point 5 °F
Humidity 82%
Rainfall 0.00 in
Snow Depth Not available.
7:25 AM 5:55 PM
Waxing Crescent, 17% visible
METAR KCGF 120345Z 22008KT 15SM FEW030 BKN060 BKN100 M08/M13 A3025
Pressure 30.25 in
Visibility 15.0 miles
Clouds Few 3000 ft
Mostly Cloudy 6000 ft
Mostly Cloudy 10000 ft
Windchill 10 °F
Dew Point 5 °F
Humidity 82%
Rainfall 0.00 in
Snow Depth Not available.
7:25 AM 5:55 PM
Waxing Crescent, 17% visible
METAR KCGF 120345Z 22008KT 15SM FEW030 BKN060 BKN100 M08/M13 A3025

10-Day Weather Forecast

Almanac

Astronomy

Feb. 12, 2016 Rise Set
Actual Time
Civil Twilight
Nautical Twilight
Astronomical Twilight
Moon
Length of Visible Light
Length of Day
Tomorrow will be .
, % of the Moon is Illuminated

Today's Extremes

State Highs State Lows

Community

WunderPhotos

Upload Photos

1,892,273 photos uploaded!

WunderBlog® & News

Nearby

Air Quality

  Air Quality AQ Index Pollutant
Not available.

Snow Depth

Station Depth Elevation

Earthquake Activity

City Distance Mag. Time & Date
Minimum magnitude displayed is 2.5.

Coastal Water Temperatures

Place Temperature

Stations

Nearby Weather Stations

Station Location Temp. Windchill Dew Point Humidity Wind Precip. Elev Updated Type
                   

Watches & Warnings

There are currently no watches in effect.